De Soto, WI (54624)

1:19 AM CDT on August 21, 2014 (GMT -0500)
DeSoto WI | Change Station
CLOSE
Current Station
Personal Weather Station
Location: DeSoto, WI
Elevation: 778 ft
Nearby Weather Stations

Elev 778 ft 43.44 °N, 91.21 °W | Updated 2 seconds ago

Mostly Cloudy
Mostly Cloudy
70.2 °F
Feels Like 70.2 °F
N
0.0
Wind Variable Wind from East
Gusts 0.0 mph

Today
High -- | Low -- °F
--% Chance of Precip.
Yesterday
High -- | Low -- °F
Precip. -- in
6:16 AM 7:58 PM
Waning Crescent, 16% visible
Pressure 29.93 in
Visibility 4.0 miles
Clouds Mostly Cloudy 12000 ft
Dew Point 68 °F
Humidity 93%
Rainfall 0.00 in
Snow Depth Not available.
UV 0 out of 12
Pollen 10.20 out of 12
Air Quality Not available.
Flu Activity Not available.
METAR KY51 210555Z AUTO 10005KT 4SM BKN120 20/20 A2993 RMK AO1 T02000200 10259 20198 402790150

More Conditions Fewer Conditions

Pressure 29.93 in
Visibility 4.0 miles
Clouds Mostly Cloudy 12000 ft
Dew Point 68 °F
Humidity 93%
Rainfall 0.00 in
Snow Depth Not available.
UV 0 out of 12
Pollen 10.20 out of 12
Air Quality Not available.
Flu Activity Not available.
METAR KY51 210555Z AUTO 10005KT 4SM BKN120 20/20 A2993 RMK AO1 T02000200 10259 20198 402790150

More Conditions Fewer Conditions

10-Day Weather Forecast

Almanac

Astronomy

Aug. 21, 2014 Rise Set
Actual Time 6:16 AM CDT 7:58 PM CDT
Civil Twilight 5:46 AM CDT 8:28 PM CDT
Nautical Twilight 5:09 AM CDT 9:05 PM CDT
Astronomical Twilight 4:29 AM CDT 9:45 PM CDT
Moon 2:44 AM CDT 5:30 PM CDT
Length of Visible Light 14h 42m
Length of Day
13h 42m
Tomorrow will be 2m 45s shorter.
Waning Crescent, 16% of the Moon is Illuminated
Today
Waning Crescent
Aug 25
New
Sep 2
First Quarter
Sep 8
Full
Sep 15
Last Quarter

Today's Extremes

State Highs State Lows

Community

WunderPhotos

Upload Photos

1,745,858 photos uploaded!

Nearby

Snow Depth

Station Depth Elevation
No new snow has been reported.

Earthquake Activity

City Distance Mag. Time & Date
No recent earthquake activity has been reported nearby.
Minimum magnitude displayed is 2.5.

Coastal Water Temperatures

Place Temperature
No Stations Reporting

Nearby Weather Stations